Time;durP1;ratioP1;P1;durP2;ratioP2;P2;SDS_P1;SDS_P2;PMS_P1;PMS_P2;Temp;Humidity;BMP_temperature;BMP_pressure;BME280_temperature;BME280_humidity;BME280_pressure;Samples;Min_cycle;Max_cycle;Signal;HPM_P1;HPM_P2
2023/11/07 00:05:37;;;;;;;;;;;8.80;99.90;;;;;;6721100;88;20069;-79
2023/11/07 00:15:37;;;;;;;;;;;9.00;99.90;;;;;;6731758;88;20104;-79
2023/11/07 00:25:38;;;;;;;;;;;9.00;99.90;;;;;;6721286;88;20077;-80
2023/11/07 00:35:39;;;;;;;;;;;9.00;99.90;;;;;;6721057;88;20072;-80
2023/11/07 00:45:40;;;;;;;;;;;8.90;99.90;;;;;;6717250;88;20090;-80
2023/11/07 00:55:40;;;;;;;;;;;8.80;99.90;;;;;;6725111;88;20490;-79
2023/11/07 01:05:41;;;;;;;;;;;8.70;99.90;;;;;;6716256;88;20148;-79
2023/11/07 01:15:41;;;;;;;;;;;8.60;99.90;;;;;;6716359;88;20055;-80
2023/11/07 01:25:42;;;;;;;;;;;8.40;99.90;;;;;;6721500;88;20050;-80
2023/11/07 01:35:42;;;;;;;;;;;8.70;99.90;;;;;;6725109;88;20050;-80
2023/11/07 01:45:43;;;;;;;;;;;8.60;99.90;;;;;;6725377;88;20074;-80
2023/11/07 01:55:43;;;;;;;;;;;8.90;99.90;;;;;;6715113;88;20178;-80
2023/11/07 02:05:44;;;;;;;;;;;9.10;99.90;;;;;;6714399;88;20185;-79
2023/11/07 02:15:44;;;;;;;;;;;9.10;99.90;;;;;;6728553;88;20076;-80
2023/11/07 02:25:50;;;;;;;;;;;9.10;99.90;;;;;;6704272;88;20144;-80
2023/11/07 02:35:50;;;;;;;;;;;9.20;99.90;;;;;;6723904;88;20066;-80
2023/11/07 02:56:53;;;;;;;;;;;9.50;99.90;;;;;;6660480;89;20560;-80
2023/11/07 03:06:53;;;;;;;;;;;9.50;99.90;;;;;;6667392;88;20069;-80
2023/11/07 03:16:54;;;;;;;;;;;9.60;99.90;;;;;;6665268;89;20078;-80
2023/11/07 03:26:55;;;;;;;;;;;9.70;99.90;;;;;;6656603;89;20119;-80
2023/11/07 03:36:55;;;;;;;;;;;9.70;99.90;;;;;;6660142;89;20105;-80
2023/11/07 03:46:56;;;;;;;;;;;9.70;99.90;;;;;;6659927;89;20086;-78
2023/11/07 03:56:56;;;;;;;;;;;9.70;99.90;;;;;;6661448;88;20158;-81
2023/11/07 04:06:58;;;;;;;;;;;9.70;99.90;;;;;;6730109;88;20189;-80
2023/11/07 04:17:01;;;;;;;;;;;9.80;99.90;;;;;;6718529;88;20092;-81
2023/11/07 04:27:01;;;;;;;;;;;9.80;99.90;;;;;;6711368;88;20084;-80
2023/11/07 04:37:02;;;;;;;;;;;9.70;99.90;;;;;;6708929;88;20163;-81
2023/11/07 04:47:02;;;;;;;;;;;9.70;99.90;;;;;;6717940;88;20052;-81
2023/11/07 04:57:03;;;;;;;;;;;9.70;99.90;;;;;;6714811;88;20114;-81
2023/11/07 05:07:03;;;;;;;;;;;9.60;99.90;;;;;;6646823;88;20134;-80
2023/11/07 05:17:04;;;;;;;;;;;9.60;99.90;;;;;;6642240;89;20264;-79
2023/11/07 05:27:05;;;;;;;;;;;9.60;99.90;;;;;;6636258;89;20061;-79
2023/11/07 05:37:05;;;;;;;;;;;9.70;99.90;;;;;;6638455;89;20076;-79
2023/11/07 05:47:06;;;;;;;;;;;9.70;99.90;;;;;;6643207;89;20087;-80
2023/11/07 05:57:07;;;;;;;;;;;9.70;99.90;;;;;;6651901;89;20596;-80
2023/11/07 06:07:09;;;;;;;;;;;9.80;99.90;;;;;;6653390;88;20159;-80
2023/11/07 06:17:11;;;;;;;;;;;9.70;99.90;;;;;;6661240;88;20046;-80
2023/11/07 06:27:12;;;;;;;;;;;9.70;99.90;;;;;;6657531;88;20132;-82
2023/11/07 06:37:12;;;;;;;;;;;9.70;99.90;;;;;;6657892;88;20746;-83
2023/11/07 06:47:13;;;;;;;;;;;9.70;99.90;;;;;;6663170;88;20050;-84
2023/11/07 06:57:13;;;;;;;;;;;9.70;99.90;;;;;;6664040;89;20046;-84
2023/11/07 07:07:14;;;;;;;;;;;9.60;99.90;;;;;;6664079;88;20642;-82
2023/11/07 07:17:16;;;;;;;;;;;9.70;99.90;;;;;;6662630;88;20119;-82
2023/11/07 07:27:19;;;;;;;;;;;9.80;99.90;;;;;;6627341;89;20030;-81
2023/11/07 07:37:20;;;;;;;;;;;9.80;99.90;;;;;;6629713;89;20124;-82
2023/11/07 07:47:23;;;;;;;;;;;10.00;99.90;;;;;;6646258;89;20039;-85
2023/11/07 07:57:49;;;;;;;;;;;;;;;;;;;;;
2023/11/07 08:07:51;;;;;;;;;;;10.20;99.90;;;;;;6611592;89;20037;-84
2023/11/07 08:17:51;;;;;;;;;;;10.30;99.90;;;;;;6654786;89;20114;-81
2023/11/07 08:28:09;;;;;;;;;;;10.40;99.90;;;;;;6663159;89;20689;-81
2023/11/07 08:38:10;;;;;;;;;;;10.50;99.90;;;;;;6663350;88;20785;-82
2023/11/07 08:48:11;;;;;;;;;;;10.80;99.90;;;;;;6724889;78;20718;-78
2023/11/07 08:58:12;;;;;;;;;;;11.30;99.90;;;;;;6757273;88;20147;-78
2023/11/07 09:08:12;;;;;;;;;;;12.20;99.90;;;;;;6747146;88;20053;-79
2023/11/07 09:18:13;;;;;;;;;;;12.10;99.90;;;;;;6747418;88;20109;-78
2023/11/07 09:28:13;;;;;;;;;;;11.80;99.90;;;;;;6748753;87;20057;-78
2023/11/07 09:38:14;;;;;;;;;;;11.70;99.90;;;;;;6747959;87;20073;-78
2023/11/07 09:48:18;;;;;;;;;;;11.60;99.90;;;;;;6696590;88;20113;-79
2023/11/07 09:58:28;;;;;;;;;;;11.60;99.90;;;;;;6731296;88;20074;-78
2023/11/07 10:08:29;;;;;;;;;;;11.90;99.90;;;;;;6745991;88;20065;-79
2023/11/07 10:18:44;;;;;;;;;;;12.30;99.90;;;;;;6749254;88;20197;-78
2023/11/07 10:28:44;;;;;;;;;;;12.80;99.90;;;;;;6719511;88;20078;-79
2023/11/07 10:38:46;;;;;;;;;;;13.90;99.90;;;;;;6745296;88;20210;-79
2023/11/07 10:48:48;;;;;;;;;;;14.60;99.90;;;;;;6745213;88;20439;-78
2023/11/07 10:58:54;;;;;;;;;;;14.30;99.90;;;;;;6747274;88;20049;-78
2023/11/07 11:09:00;;;;;;;;;;;15.20;99.90;;;;;;6743853;88;20145;-80
2023/11/07 11:19:06;;;;;;;;;;;14.40;99.90;;;;;;6662782;89;20110;-79
2023/11/07 11:29:23;;;;;;;;;;;14.80;99.90;;;;;;6676707;88;20265;-80
2023/11/07 11:39:26;;;;;;;;;;;13.80;99.90;;;;;;6741815;88;20059;-78
2023/11/07 11:49:27;;;;;;;;;;;13.10;99.90;;;;;;6747641;88;20072;-79
2023/11/07 11:59:28;;;;;;;;;;;13.10;99.90;;;;;;6745982;88;20049;-78
2023/11/07 12:09:29;;;;;;;;;;;13.90;99.90;;;;;;6752600;88;20520;-79
2023/11/07 12:19:30;;;;;;;;;;;13.70;99.90;;;;;;6739721;88;20080;-79
2023/11/07 12:29:31;;;;;;;;;;;13.80;99.90;;;;;;6750624;88;20077;-79
2023/11/07 12:39:32;;;;;;;;;;;14.10;99.90;;;;;;6732883;88;20058;-79
2023/11/07 12:49:36;;;;;;;;;;;13.10;99.90;;;;;;6745264;88;20062;-81
2023/11/07 12:59:36;;;;;;;;;;;13.20;99.90;;;;;;6749382;88;20070;-79
2023/11/07 13:09:37;;;;;;;;;;;14.20;99.90;;;;;;6749397;88;20168;-79
2023/11/07 13:19:40;;;;;;;;;;;17.20;99.90;;;;;;6745842;88;20046;-79
2023/11/07 13:29:41;;;;;;;;;;;14.80;99.90;;;;;;6750852;88;20130;-79
2023/11/07 13:39:43;;;;;;;;;;;13.90;99.90;;;;;;6749186;88;20066;-79
2023/11/07 13:49:43;;;;;;;;;;;13.50;99.90;;;;;;6730969;88;20083;-79
2023/11/07 13:59:44;;;;;;;;;;;12.90;99.90;;;;;;6729227;88;20063;-79
2023/11/07 14:09:44;;;;;;;;;;;12.50;99.90;;;;;;6731305;88;20071;-79
2023/11/07 14:19:45;;;;;;;;;;;12.90;99.90;;;;;;6727856;88;20504;-79
2023/11/07 14:29:45;;;;;;;;;;;12.10;99.90;;;;;;6737036;88;20085;-78
2023/11/07 14:39:47;;;;;;;;;;;11.10;99.90;;;;;;6736639;88;20078;-78
2023/11/07 14:49:50;;;;;;;;;;;10.80;99.90;;;;;;6750916;88;20057;-79
2023/11/07 14:59:50;;;;;;;;;;;10.40;99.90;;;;;;6753694;88;20076;-79
2023/11/07 15:09:51;;;;;;;;;;;10.60;99.90;;;;;;6748927;88;20109;-79
2023/11/07 15:19:51;;;;;;;;;;;10.50;99.90;;;;;;6752956;88;20070;-80
2023/11/07 15:29:52;;;;;;;;;;;10.60;99.90;;;;;;6746111;88;20107;-79
2023/11/07 15:39:52;;;;;;;;;;;10.50;99.90;;;;;;6755506;88;20070;-78
2023/11/07 15:49:53;;;;;;;;;;;10.20;99.90;;;;;;6747983;88;20132;-79
2023/11/07 15:59:53;;;;;;;;;;;10.00;99.90;;;;;;6727676;88;20061;-80
2023/11/07 16:09:54;;;;;;;;;;;9.90;99.90;;;;;;6750798;88;20482;-80
2023/11/07 16:19:55;;;;;;;;;;;9.70;99.90;;;;;;6744166;88;20577;-80
2023/11/07 16:29:55;;;;;;;;;;;9.50;99.90;;;;;;6682197;88;20064;-78
2023/11/07 16:39:56;;;;;;;;;;;9.50;99.90;;;;;;6746491;88;20065;-80
2023/11/07 16:49:56;;;;;;;;;;;9.40;99.90;;;;;;6756051;88;20447;-79
2023/11/07 16:59:57;;;;;;;;;;;9.40;99.90;;;;;;6720586;88;20620;-78
2023/11/07 17:09:57;;;;;;;;;;;9.40;99.90;;;;;;6735734;88;20083;-79
2023/11/07 17:19:58;;;;;;;;;;;9.30;99.90;;;;;;6748560;88;20122;-80
2023/11/07 17:29:58;;;;;;;;;;;9.30;99.90;;;;;;6753246;88;20663;-79
2023/11/07 17:39:59;;;;;;;;;;;9.40;99.90;;;;;;6753944;88;20082;-79
2023/11/07 17:50:01;;;;;;;;;;;9.40;99.90;;;;;;6743530;88;20069;-78
2023/11/07 18:00:03;;;;;;;;;;;9.40;99.90;;;;;;6751815;88;20795;-80
2023/11/07 18:10:04;;;;;;;;;;;9.30;99.90;;;;;;6750343;88;20084;-78
2023/11/07 18:20:04;;;;;;;;;;;9.30;99.90;;;;;;6746090;88;20855;-78
2023/11/07 18:30:07;;;;;;;;;;;9.30;99.90;;;;;;6748624;87;20236;-79
2023/11/07 18:40:12;;;;;;;;;;;9.30;99.90;;;;;;6750140;88;20071;-79
2023/11/07 18:50:12;;;;;;;;;;;8.90;99.90;;;;;;6686767;88;20053;-79
2023/11/07 19:00:13;;;;;;;;;;;8.60;99.90;;;;;;6673105;88;20082;-78
2023/11/07 19:10:15;;;;;;;;;;;8.50;99.90;;;;;;6657510;88;20065;-77
2023/11/07 19:20:17;;;;;;;;;;;8.40;99.90;;;;;;6655592;89;20062;-76
2023/11/07 19:30:17;;;;;;;;;;;8.30;99.90;;;;;;6657719;88;20087;-77
2023/11/07 19:40:22;;;;;;;;;;;8.30;99.90;;;;;;6656820;88;20510;-76
2023/11/07 19:50:22;;;;;;;;;;;8.30;99.90;;;;;;6655081;88;20510;-76
2023/11/07 20:00:26;;;;;;;;;;;8.20;99.90;;;;;;6655224;88;20160;-76
2023/11/07 20:10:27;;;;;;;;;;;8.10;99.90;;;;;;6677638;88;20089;-77
2023/11/07 20:20:27;;;;;;;;;;;8.00;99.90;;;;;;6662003;88;20093;-78
2023/11/07 20:30:27;;;;;;;;;;;7.90;99.90;;;;;;6668768;88;20439;-79
2023/11/07 20:40:28;;;;;;;;;;;8.00;99.90;;;;;;6665542;88;20094;-78
2023/11/07 20:50:29;;;;;;;;;;;8.10;99.90;;;;;;6665584;88;20058;-78
2023/11/07 21:21:34;;;;;;;;;;;8.40;99.90;;;;;;6730222;88;20600;-82
2023/11/07 21:31:35;;;;;;;;;;;8.40;99.90;;;;;;6740153;88;20075;-82
2023/11/07 21:41:36;;;;;;;;;;;8.70;99.90;;;;;;6748437;88;20048;-83
2023/11/07 21:51:36;;;;;;;;;;;8.60;99.90;;;;;;6745706;88;20074;-81
2023/11/07 22:01:37;;;;;;;;;;;8.50;99.90;;;;;;6747607;88;20105;-81
2023/11/07 22:11:37;;;;;;;;;;;8.40;99.90;;;;;;6703773;89;20746;-82
2023/11/07 22:21:38;;;;;;;;;;;8.50;99.90;;;;;;6707042;88;20102;-82
2023/11/07 22:31:38;;;;;;;;;;;8.50;99.90;;;;;;6703998;89;20517;-82
2023/11/07 22:41:39;;;;;;;;;;;8.40;99.90;;;;;;6715354;88;20039;-83
2023/11/07 22:51:39;;;;;;;;;;;8.40;99.90;;;;;;6742201;88;20096;-80
2023/11/07 23:01:40;;;;;;;;;;;8.50;99.90;;;;;;6743860;88;20608;-81
2023/11/07 23:11:45;;;;;;;;;;;8.30;99.90;;;;;;6743268;88;20576;-81
2023/11/07 23:21:46;;;;;;;;;;;8.40;99.90;;;;;;6743101;88;20063;-81
2023/11/07 23:31:47;;;;;;;;;;;8.50;99.90;;;;;;6742021;88;20524;-81
2023/11/07 23:41:48;;;;;;;;;;;8.60;99.90;;;;;;6687167;89;20142;-81
2023/11/07 23:51:48;;;;;;;;;;;8.30;99.90;;;;;;6671242;89;20082;-81
